sensor_id;sensor_type;location;lat;lon;timestamp;pressure;altitude;pressure_sealevel;temperature;humidity
85476;BME280;75880;41.476;22.164;2024-02-21T00:01:02;101142.44;;;2.81;81.83
85476;BME280;75880;41.476;22.164;2024-02-21T00:03:27;101137.53;;;2.68;82.34
85476;BME280;75880;41.476;22.164;2024-02-21T00:05:56;101138.31;;;2.53;82.96
85476;BME280;75880;41.476;22.164;2024-02-21T00:08:22;101139.59;;;2.41;83.63
85476;BME280;75880;41.476;22.164;2024-02-21T00:10:48;101140.38;;;2.31;83.73
85476;BME280;75880;41.476;22.164;2024-02-21T00:13:15;101147.34;;;2.27;84.22
85476;BME280;75880;41.476;22.164;2024-02-21T00:15:40;101134.91;;;2.16;83.58
85476;BME280;75880;41.476;22.164;2024-02-21T00:18:06;101145.97;;;2.20;85.08
85476;BME280;75880;41.476;22.164;2024-02-21T00:20:32;101147.59;;;2.21;85.08
85476;BME280;75880;41.476;22.164;2024-02-21T00:22:58;101144.91;;;2.21;84.97
85476;BME280;75880;41.476;22.164;2024-02-21T00:25:24;101156.78;;;2.20;83.67
85476;BME280;75880;41.476;22.164;2024-02-21T00:27:49;101147.53;;;2.06;83.53
85476;BME280;75880;41.476;22.164;2024-02-21T00:30:15;101156.66;;;2.00;83.96
85476;BME280;75880;41.476;22.164;2024-02-21T00:32:41;101158.00;;;1.97;84.52
85476;BME280;75880;41.476;22.164;2024-02-21T00:35:07;101158.78;;;1.93;84.08
85476;BME280;75880;41.476;22.164;2024-02-21T00:37:33;101153.06;;;1.84;85.34
85476;BME280;75880;41.476;22.164;2024-02-21T00:39:58;101145.44;;;1.76;85.11
85476;BME280;75880;41.476;22.164;2024-02-21T00:42:24;101145.69;;;1.70;85.41
85476;BME280;75880;41.476;22.164;2024-02-21T00:44:50;101146.69;;;1.64;84.36
85476;BME280;75880;41.476;22.164;2024-02-21T00:47:15;101140.19;;;1.55;84.45
85476;BME280;75880;41.476;22.164;2024-02-21T00:49:41;101142.28;;;1.48;84.63
85476;BME280;75880;41.476;22.164;2024-02-21T00:52:07;101147.66;;;1.48;85.02
85476;BME280;75880;41.476;22.164;2024-02-21T00:54:32;101145.22;;;1.46;85.42
85476;BME280;75880;41.476;22.164;2024-02-21T00:56:58;101145.44;;;1.40;84.45
85476;BME280;75880;41.476;22.164;2024-02-21T00:59:24;101140.84;;;1.35;85.71
85476;BME280;75880;41.476;22.164;2024-02-21T01:01:50;101140.28;;;1.33;85.48
85476;BME280;75880;41.476;22.164;2024-02-21T01:04:15;101148.88;;;1.30;84.90
85476;BME280;75880;41.476;22.164;2024-02-21T01:06:41;101142.63;;;1.25;85.57
85476;BME280;75880;41.476;22.164;2024-02-21T01:09:10;101140.94;;;1.14;84.61
85476;BME280;75880;41.476;22.164;2024-02-21T01:11:36;101139.56;;;1.11;85.21
85476;BME280;75880;41.476;22.164;2024-02-21T01:14:02;101131.66;;;1.05;86.16
85476;BME280;75880;41.476;22.164;2024-02-21T01:16:28;101143.56;;;1.09;86.18
85476;BME280;75880;41.476;22.164;2024-02-21T01:18:54;101124.09;;;1.02;85.59
85476;BME280;75880;41.476;22.164;2024-02-21T01:21:20;101134.63;;;1.03;86.65
85476;BME280;75880;41.476;22.164;2024-02-21T01:23:46;101124.66;;;1.04;85.72
85476;BME280;75880;41.476;22.164;2024-02-21T01:26:12;101123.63;;;1.10;86.45
85476;BME280;75880;41.476;22.164;2024-02-21T01:28:40;101130.63;;;1.11;86.24
85476;BME280;75880;41.476;22.164;2024-02-21T01:31:06;101118.16;;;1.00;85.24
85476;BME280;75880;41.476;22.164;2024-02-21T01:33:31;101125.16;;;1.01;86.57
85476;BME280;75880;41.476;22.164;2024-02-21T01:36:01;101121.94;;;1.04;86.04
85476;BME280;75880;41.476;22.164;2024-02-21T01:38:28;101114.94;;;1.03;86.23
85476;BME280;75880;41.476;22.164;2024-02-21T01:40:54;101118.47;;;1.03;86.02
85476;BME280;75880;41.476;22.164;2024-02-21T01:43:20;101120.84;;;1.00;86.68
85476;BME280;75880;41.476;22.164;2024-02-21T01:45:52;101113.28;;;0.97;86.44
85476;BME280;75880;41.476;22.164;2024-02-21T01:48:18;101104.28;;;0.86;86.56
85476;BME280;75880;41.476;22.164;2024-02-21T01:50:49;101108.66;;;0.92;86.65
85476;BME280;75880;41.476;22.164;2024-02-21T01:53:36;101107.38;;;1.00;87.35
85476;BME280;75880;41.476;22.164;2024-02-21T01:56:03;101109.31;;;1.04;87.40
85476;BME280;75880;41.476;22.164;2024-02-21T01:58:30;101104.94;;;0.98;87.38
85476;BME280;75880;41.476;22.164;2024-02-21T02:00:59;101105.50;;;1.00;87.97
85476;BME280;75880;41.476;22.164;2024-02-21T02:03:25;101104.69;;;1.00;88.11
85476;BME280;75880;41.476;22.164;2024-02-21T02:05:51;101114.44;;;1.06;87.29
85476;BME280;75880;41.476;22.164;2024-02-21T02:08:18;101110.88;;;1.00;84.56
85476;BME280;75880;41.476;22.164;2024-02-21T02:10:45;101108.41;;;0.94;86.19
85476;BME280;75880;41.476;22.164;2024-02-21T02:13:11;101116.13;;;0.85;86.39
85476;BME280;75880;41.476;22.164;2024-02-21T02:15:41;101115.19;;;0.75;86.82
85476;BME280;75880;41.476;22.164;2024-02-21T02:18:07;101116.78;;;0.71;87.92
85476;BME280;75880;41.476;22.164;2024-02-21T02:20:33;101111.34;;;0.66;86.98
85476;BME280;75880;41.476;22.164;2024-02-21T02:22:59;101101.78;;;0.53;86.83
85476;BME280;75880;41.476;22.164;2024-02-21T02:25:28;101113.38;;;0.54;87.77
85476;BME280;75880;41.476;22.164;2024-02-21T02:27:54;101109.56;;;0.50;86.87
85476;BME280;75880;41.476;22.164;2024-02-21T02:30:19;101118.72;;;0.49;87.34
85476;BME280;75880;41.476;22.164;2024-02-21T02:32:45;101111.31;;;0.39;87.40
85476;BME280;75880;41.476;22.164;2024-02-21T02:35:12;101112.63;;;0.37;87.71
85476;BME280;75880;41.476;22.164;2024-02-21T02:37:38;101108.91;;;0.38;87.54
85476;BME280;75880;41.476;22.164;2024-02-21T02:40:07;101107.78;;;0.34;87.74
85476;BME280;75880;41.476;22.164;2024-02-21T02:42:33;101106.16;;;0.33;88.15
85476;BME280;75880;41.476;22.164;2024-02-21T02:44:58;101098.56;;;0.30;87.14
85476;BME280;75880;41.476;22.164;2024-02-21T02:47:27;101100.44;;;0.29;87.97
85476;BME280;75880;41.476;22.164;2024-02-21T02:49:53;101106.16;;;0.33;87.76
85476;BME280;75880;41.476;22.164;2024-02-21T02:52:18;101100.97;;;0.26;87.15
85476;BME280;75880;41.476;22.164;2024-02-21T02:54:45;101104.91;;;0.19;87.57
85476;BME280;75880;41.476;22.164;2024-02-21T02:57:11;101119.72;;;0.21;87.57
85476;BME280;75880;41.476;22.164;2024-02-21T02:59:36;101119.16;;;0.19;88.42
85476;BME280;75880;41.476;22.164;2024-02-21T03:02:02;101123.78;;;0.24;88.20
85476;BME280;75880;41.476;22.164;2024-02-21T03:04:28;101116.47;;;0.19;88.32
85476;BME280;75880;41.476;22.164;2024-02-21T03:06:53;101113.22;;;0.17;88.60
85476;BME280;75880;41.476;22.164;2024-02-21T03:09:19;101116.72;;;0.18;88.61
85476;BME280;75880;41.476;22.164;2024-02-21T03:11:45;101119.09;;;0.14;87.30
85476;BME280;75880;41.476;22.164;2024-02-21T03:14:10;101121.41;;;0.06;88.00
85476;BME280;75880;41.476;22.164;2024-02-21T03:16:37;101117.03;;;0.00;88.03
85476;BME280;75880;41.476;22.164;2024-02-21T03:19:02;101113.75;;;-0.02;87.66
85476;BME280;75880;41.476;22.164;2024-02-21T03:21:28;101124.09;;;0.06;88.49
85476;BME280;75880;41.476;22.164;2024-02-21T03:23:54;101120.84;;;0.04;87.92
85476;BME280;75880;41.476;22.164;2024-02-21T03:26:20;101116.03;;;0.06;88.08
85476;BME280;75880;41.476;22.164;2024-02-21T03:28:45;101114.63;;;0.03;86.96
85476;BME280;75880;41.476;22.164;2024-02-21T03:31:12;101110.75;;;-0.06;87.33
85476;BME280;75880;41.476;22.164;2024-02-21T03:33:42;101129.34;;;-0.04;88.79
85476;BME280;75880;41.476;22.164;2024-02-21T03:36:15;101110.94;;;-0.12;89.36
85476;BME280;75880;41.476;22.164;2024-02-21T03:38:41;101109.56;;;-0.14;88.99
85476;BME280;75880;41.476;22.164;2024-02-21T03:41:07;101104.19;;;-0.14;88.79
85476;BME280;75880;41.476;22.164;2024-02-21T03:43:32;101103.88;;;-0.18;88.97
85476;BME280;75880;41.476;22.164;2024-02-21T03:45:58;101116.31;;;-0.12;88.67
85476;BME280;75880;41.476;22.164;2024-02-21T03:48:24;101110.94;;;-0.12;88.36
85476;BME280;75880;41.476;22.164;2024-02-21T03:50:50;101118.69;;;-0.15;88.54
85476;BME280;75880;41.476;22.164;2024-02-21T03:53:16;101123.84;;;-0.14;89.11
85476;BME280;75880;41.476;22.164;2024-02-21T03:55:42;101126.69;;;-0.20;88.10
85476;BME280;75880;41.476;22.164;2024-02-21T03:58:08;101126.31;;;-0.29;87.69
85476;BME280;75880;41.476;22.164;2024-02-21T04:00:33;101135.44;;;-0.30;88.29
85476;BME280;75880;41.476;22.164;2024-02-21T04:02:59;101127.38;;;-0.30;88.90
85476;BME280;75880;41.476;22.164;2024-02-21T04:05:25;101127.28;;;-0.35;88.38
85476;BME280;75880;41.476;22.164;2024-02-21T04:07:50;101124.09;;;-0.32;88.45
85476;BME280;75880;41.476;22.164;2024-02-21T04:10:17;101117.28;;;-0.39;88.40
85476;BME280;75880;41.476;22.164;2024-02-21T04:12:42;101110.13;;;-0.50;88.03
85476;BME280;75880;41.476;22.164;2024-02-21T04:15:08;101129.84;;;-0.45;88.36
85476;BME280;75880;41.476;22.164;2024-02-21T04:17:34;101122.50;;;-0.49;88.82
85476;BME280;75880;41.476;22.164;2024-02-21T04:20:03;101134.06;;;-0.49;87.43
85476;BME280;75880;41.476;22.164;2024-02-21T04:22:34;101131.59;;;-0.50;88.13
85476;BME280;75880;41.476;22.164;2024-02-21T04:25:00;101132.69;;;-0.51;88.93
85476;BME280;75880;41.476;22.164;2024-02-21T04:27:26;101136.19;;;-0.51;88.44
85476;BME280;75880;41.476;22.164;2024-02-21T04:29:53;101130.97;;;-0.57;88.45
85476;BME280;75880;41.476;22.164;2024-02-21T04:32:19;101128.94;;;-0.67;88.38
85476;BME280;75880;41.476;22.164;2024-02-21T04:34:45;101135.22;;;-0.61;88.43
85476;BME280;75880;41.476;22.164;2024-02-21T04:37:11;101141.06;;;-0.64;88.92
85476;BME280;75880;41.476;22.164;2024-02-21T04:39:37;101143.50;;;-0.63;89.92
85476;BME280;75880;41.476;22.164;2024-02-21T04:42:02;101140.41;;;-0.55;89.19
85476;BME280;75880;41.476;22.164;2024-02-21T04:44:28;101135.13;;;-0.50;88.89
85476;BME280;75880;41.476;22.164;2024-02-21T04:46:54;101135.88;;;-0.54;88.63
85476;BME280;75880;41.476;22.164;2024-02-21T04:49:19;101142.63;;;-0.52;88.61
85476;BME280;75880;41.476;22.164;2024-02-21T04:51:45;101141.72;;;-0.57;88.59
85476;BME280;75880;41.476;22.164;2024-02-21T04:54:11;101142.88;;;-0.53;89.29
85476;BME280;75880;41.476;22.164;2024-02-21T04:56:37;101135.78;;;-0.59;90.38
85476;BME280;75880;41.476;22.164;2024-02-21T04:59:02;101136.09;;;-0.56;90.08
85476;BME280;75880;41.476;22.164;2024-02-21T05:01:28;101132.84;;;-0.58;89.87
85476;BME280;75880;41.476;22.164;2024-02-21T05:03:53;101138.47;;;-0.59;89.54
85476;BME280;75880;41.476;22.164;2024-02-21T05:06:19;101133.91;;;-0.59;90.49
85476;BME280;75880;41.476;22.164;2024-02-21T05:08:45;101140.34;;;-0.60;90.06
85476;BME280;75880;41.476;22.164;2024-02-21T05:11:10;101142.53;;;-0.57;90.05
85476;BME280;75880;41.476;22.164;2024-02-21T05:13:36;101144.16;;;-0.56;91.27
85476;BME280;75880;41.476;22.164;2024-02-21T05:16:02;101146.09;;;-0.51;91.39
85476;BME280;75880;41.476;22.164;2024-02-21T05:18:28;101136.50;;;-0.64;89.89
85476;BME280;75880;41.476;22.164;2024-02-21T05:20:54;101147.41;;;-0.54;88.82
85476;BME280;75880;41.476;22.164;2024-02-21T05:23:19;101150.38;;;-0.55;89.81
85476;BME280;75880;41.476;22.164;2024-02-21T05:25:45;101158.75;;;-0.52;88.18
85476;BME280;75880;41.476;22.164;2024-02-21T05:28:11;101156.47;;;-0.60;87.94
85476;BME280;75880;41.476;22.164;2024-02-21T05:30:36;101161.34;;;-0.57;87.16
85476;BME280;75880;41.476;22.164;2024-02-21T05:33:05;101168.19;;;-0.66;88.01
85476;BME280;75880;41.476;22.164;2024-02-21T05:35:31;101172.00;;;-0.62;88.02
85476;BME280;75880;41.476;22.164;2024-02-21T05:37:57;101175.66;;;-0.68;87.80
85476;BME280;75880;41.476;22.164;2024-02-21T05:40:23;101166.38;;;-0.77;86.99
85476;BME280;75880;41.476;22.164;2024-02-21T05:42:48;101183.06;;;-0.75;88.22
85476;BME280;75880;41.476;22.164;2024-02-21T05:45:16;101177.94;;;-0.76;89.23
85476;BME280;75880;41.476;22.164;2024-02-21T05:47:42;101187.22;;;-0.67;88.86
85476;BME280;75880;41.476;22.164;2024-02-21T05:50:08;101194.44;;;-0.68;88.42
85476;BME280;75880;41.476;22.164;2024-02-21T05:52:34;101205.84;;;-0.61;88.09
85476;BME280;75880;41.476;22.164;2024-02-21T05:54:59;101206.78;;;-0.55;88.38
85476;BME280;75880;41.476;22.164;2024-02-21T05:57:25;101208.13;;;-0.53;87.99
85476;BME280;75880;41.476;22.164;2024-02-21T05:59:51;101209.13;;;-0.42;88.35
85476;BME280;75880;41.476;22.164;2024-02-21T06:02:17;101222.16;;;-0.34;87.84
85476;BME280;75880;41.476;22.164;2024-02-21T06:04:42;101217.69;;;-0.29;87.68
85476;BME280;75880;41.476;22.164;2024-02-21T06:07:10;101212.97;;;-0.22;88.01
85476;BME280;75880;41.476;22.164;2024-02-21T06:09:35;101211.22;;;-0.12;88.15
85476;BME280;75880;41.476;22.164;2024-02-21T06:12:01;101206.81;;;-0.01;87.66
85476;BME280;75880;41.476;22.164;2024-02-21T06:14:27;101218.38;;;0.16;87.42
85476;BME280;75880;41.476;22.164;2024-02-21T06:16:52;101206.06;;;0.20;87.69
85476;BME280;75880;41.476;22.164;2024-02-21T06:19:18;101221.34;;;0.36;86.13
85476;BME280;75880;41.476;22.164;2024-02-21T06:21:44;101220.84;;;0.39;86.78
85476;BME280;75880;41.476;22.164;2024-02-21T06:24:09;101233.75;;;0.58;87.52
85476;BME280;75880;41.476;22.164;2024-02-21T06:26:35;101243.34;;;0.71;87.00
85476;BME280;75880;41.476;22.164;2024-02-21T06:29:01;101228.28;;;0.75;86.43
85476;BME280;75880;41.476;22.164;2024-02-21T06:31:27;101237.44;;;0.95;85.62
85476;BME280;75880;41.476;22.164;2024-02-21T06:33:53;101231.34;;;1.05;86.33
85476;BME280;75880;41.476;22.164;2024-02-21T06:36:19;101238.56;;;1.26;86.33
85476;BME280;75880;41.476;22.164;2024-02-21T06:38:45;101244.31;;;1.34;85.64
85476;BME280;75880;41.476;22.164;2024-02-21T06:41:17;101243.09;;;1.47;85.59
85476;BME280;75880;41.476;22.164;2024-02-21T06:43:45;101254.88;;;1.67;85.53
85476;BME280;75880;41.476;22.164;2024-02-21T06:46:12;101258.81;;;1.86;85.58
85476;BME280;75880;41.476;22.164;2024-02-21T06:48:37;101262.44;;;2.02;84.71
85476;BME280;75880;41.476;22.164;2024-02-21T06:51:06;101261.75;;;2.16;84.40
85476;BME280;75880;41.476;22.164;2024-02-21T06:53:32;101251.56;;;2.28;83.95
85476;BME280;75880;41.476;22.164;2024-02-21T06:55:58;101254.59;;;2.37;83.52
85476;BME280;75880;41.476;22.164;2024-02-21T06:58:23;101260.91;;;2.57;84.42
85476;BME280;75880;41.476;22.164;2024-02-21T07:00:51;101257.50;;;2.72;83.32
85476;BME280;75880;41.476;22.164;2024-02-21T07:03:17;101268.66;;;2.95;82.02
85476;BME280;75880;41.476;22.164;2024-02-21T07:05:43;101265.47;;;3.08;82.23
85476;BME280;75880;41.476;22.164;2024-02-21T07:08:10;101266.03;;;3.25;81.03
85476;BME280;75880;41.476;22.164;2024-02-21T07:10:36;101259.31;;;3.38;80.30
85476;BME280;75880;41.476;22.164;2024-02-21T07:13:05;101263.41;;;3.55;79.81
85476;BME280;75880;41.476;22.164;2024-02-21T07:15:31;101263.69;;;3.59;80.01
85476;BME280;75880;41.476;22.164;2024-02-21T07:17:58;101268.03;;;3.70;79.58
85476;BME280;75880;41.476;22.164;2024-02-21T07:20:24;101258.84;;;3.85;79.81
85476;BME280;75880;41.476;22.164;2024-02-21T07:22:50;101266.94;;;4.10;79.60
85476;BME280;75880;41.476;22.164;2024-02-21T07:25:16;101266.38;;;4.33;79.54
85476;BME280;75880;41.476;22.164;2024-02-21T07:27:43;101263.34;;;4.55;78.71
85476;BME280;75880;41.476;22.164;2024-02-21T07:30:12;101257.88;;;4.70;78.22
85476;BME280;75880;41.476;22.164;2024-02-21T07:32:38;101263.81;;;4.87;77.75
85476;BME280;75880;41.476;22.164;2024-02-21T07:35:04;101260.72;;;5.08;77.55
85476;BME280;75880;41.476;22.164;2024-02-21T07:37:31;101259.03;;;5.22;76.45
85476;BME280;75880;41.476;22.164;2024-02-21T07:39:57;101247.00;;;5.33;75.25
85476;BME280;75880;41.476;22.164;2024-02-21T07:42:22;101255.56;;;5.55;75.11
85476;BME280;75880;41.476;22.164;2024-02-21T07:44:48;101262.97;;;5.78;74.04
85476;BME280;75880;41.476;22.164;2024-02-21T07:47:14;101248.78;;;5.96;73.47
85476;BME280;75880;41.476;22.164;2024-02-21T07:49:46;101250.16;;;6.22;72.51
85476;BME280;75880;41.476;22.164;2024-02-21T07:52:11;101258.25;;;6.56;70.73
85476;BME280;75880;41.476;22.164;2024-02-21T07:54:37;101250.28;;;6.64;71.26
85476;BME280;75880;41.476;22.164;2024-02-21T07:57:03;101239.50;;;6.78;71.46
85476;BME280;75880;41.476;22.164;2024-02-21T07:59:29;101247.19;;;6.94;71.49
85476;BME280;75880;41.476;22.164;2024-02-21T08:01:56;101252.16;;;7.29;70.67
85476;BME280;75880;41.476;22.164;2024-02-21T08:04:23;101242.16;;;7.43;69.82
85476;BME280;75880;41.476;22.164;2024-02-21T08:06:53;101243.69;;;7.68;69.24
85476;BME280;75880;41.476;22.164;2024-02-21T08:09:19;101241.38;;;7.93;68.81
85476;BME280;75880;41.476;22.164;2024-02-21T08:11:45;101242.47;;;8.10;68.12
85476;BME280;75880;41.476;22.164;2024-02-21T08:14:10;101244.06;;;8.11;69.24
85476;BME280;75880;41.476;22.164;2024-02-21T08:16:36;101254.53;;;8.23;67.49
85476;BME280;75880;41.476;22.164;2024-02-21T08:19:02;101251.13;;;8.31;67.26
85476;BME280;75880;41.476;22.164;2024-02-21T08:21:30;101255.84;;;8.25;68.70
85476;BME280;75880;41.476;22.164;2024-02-21T08:23:55;101250.53;;;8.15;68.50
85476;BME280;75880;41.476;22.164;2024-02-21T08:26:21;101247.28;;;8.13;67.96
85476;BME280;75880;41.476;22.164;2024-02-21T08:28:47;101244.50;;;8.18;68.60
85476;BME280;75880;41.476;22.164;2024-02-21T08:31:19;101259.72;;;8.38;69.20
85476;BME280;75880;41.476;22.164;2024-02-21T08:33:53;101237.50;;;8.44;67.29
85476;BME280;75880;41.476;22.164;2024-02-21T08:36:19;101243.28;;;8.56;67.91
85476;BME280;75880;41.476;22.164;2024-02-21T08:38:45;101233.56;;;8.50;67.70
85476;BME280;75880;41.476;22.164;2024-02-21T08:41:11;101227.91;;;8.47;67.15
85476;BME280;75880;41.476;22.164;2024-02-21T08:43:37;101239.84;;;8.64;66.37
85476;BME280;75880;41.476;22.164;2024-02-21T08:46:04;101231.44;;;8.74;67.13
85476;BME280;75880;41.476;22.164;2024-02-21T08:48:31;101231.38;;;8.66;66.51
85476;BME280;75880;41.476;22.164;2024-02-21T08:50:57;101229.44;;;8.66;67.35
85476;BME280;75880;41.476;22.164;2024-02-21T08:53:22;101240.06;;;8.68;66.96
85476;BME280;75880;41.476;22.164;2024-02-21T08:55:48;101226.41;;;8.68;66.32
85476;BME280;75880;41.476;22.164;2024-02-21T08:58:14;101234.81;;;8.58;67.78
85476;BME280;75880;41.476;22.164;2024-02-21T09:00:40;101228.44;;;8.62;67.56
85476;BME280;75880;41.476;22.164;2024-02-21T09:03:06;101227.03;;;8.65;66.58
85476;BME280;75880;41.476;22.164;2024-02-21T09:05:32;101223.28;;;8.88;65.86
85476;BME280;75880;41.476;22.164;2024-02-21T09:08:00;101216.28;;;8.95;64.86
85476;BME280;75880;41.476;22.164;2024-02-21T09:10:26;101217.28;;;9.13;64.88
85476;BME280;75880;41.476;22.164;2024-02-21T09:12:53;101221.09;;;9.25;63.66
85476;BME280;75880;41.476;22.164;2024-02-21T09:15:19;101217.81;;;9.37;63.67
85476;BME280;75880;41.476;22.164;2024-02-21T09:17:45;101209.28;;;9.52;63.47
85476;BME280;75880;41.476;22.164;2024-02-21T09:20:11;101213.63;;;9.75;62.65
85476;BME280;75880;41.476;22.164;2024-02-21T09:22:37;101208.06;;;9.80;61.33
85476;BME280;75880;41.476;22.164;2024-02-21T09:25:05;101208.34;;;10.00;60.01
85476;BME280;75880;41.476;22.164;2024-02-21T09:27:32;101206.84;;;10.08;61.71
85476;BME280;75880;41.476;22.164;2024-02-21T09:29:58;101210.59;;;10.20;60.72
85476;BME280;75880;41.476;22.164;2024-02-21T09:32:25;101210.38;;;10.39;59.10
85476;BME280;75880;41.476;22.164;2024-02-21T09:34:51;101203.81;;;10.48;59.16
85476;BME280;75880;41.476;22.164;2024-02-21T09:37:17;101204.44;;;10.45;60.09
85476;BME280;75880;41.476;22.164;2024-02-21T09:39:43;101193.56;;;10.54;57.60
85476;BME280;75880;41.476;22.164;2024-02-21T09:42:11;101207.34;;;10.79;58.05
85476;BME280;75880;41.476;22.164;2024-02-21T09:44:37;101210.25;;;10.91;58.54
85476;BME280;75880;41.476;22.164;2024-02-21T09:47:32;101209.00;;;11.06;58.85
85476;BME280;75880;41.476;22.164;2024-02-21T09:50:01;101185.81;;;11.12;57.43
85476;BME280;75880;41.476;22.164;2024-02-21T09:52:30;101189.69;;;11.28;57.23
85476;BME280;75880;41.476;22.164;2024-02-21T09:55:01;101195.84;;;11.50;55.84
85476;BME280;75880;41.476;22.164;2024-02-21T09:57:31;101192.50;;;11.70;54.44
85476;BME280;75880;41.476;22.164;2024-02-21T09:59:57;101177.63;;;11.80;54.83
85476;BME280;75880;41.476;22.164;2024-02-21T10:02:24;101175.19;;;11.87;55.17
85476;BME280;75880;41.476;22.164;2024-02-21T10:04:51;101170.50;;;11.95;55.79
85476;BME280;75880;41.476;22.164;2024-02-21T10:07:16;101170.47;;;12.12;54.51
85476;BME280;75880;41.476;22.164;2024-02-21T10:09:44;101167.22;;;12.10;53.59
85476;BME280;75880;41.476;22.164;2024-02-21T10:12:13;101156.69;;;12.21;53.16
85476;BME280;75880;41.476;22.164;2024-02-21T10:14:39;101150.00;;;12.01;52.82
85476;BME280;75880;41.476;22.164;2024-02-21T10:17:05;101148.63;;;12.24;53.26
85476;BME280;75880;41.476;22.164;2024-02-21T10:19:35;101143.09;;;12.41;53.58
85476;BME280;75880;41.476;22.164;2024-02-21T10:22:05;101132.44;;;12.40;53.70
85476;BME280;75880;41.476;22.164;2024-02-21T10:24:34;101123.97;;;12.53;52.28
85476;BME280;75880;41.476;22.164;2024-02-21T10:27:08;101132.94;;;12.62;51.46
85476;BME280;75880;41.476;22.164;2024-02-21T10:29:35;101118.56;;;12.65;51.53
85476;BME280;75880;41.476;22.164;2024-02-21T10:32:11;101116.19;;;12.84;50.88
85476;BME280;75880;41.476;22.164;2024-02-21T10:34:38;101109.34;;;12.70;50.75
85476;BME280;75880;41.476;22.164;2024-02-21T10:37:06;101116.00;;;12.60;50.76
85476;BME280;75880;41.476;22.164;2024-02-21T10:39:33;101100.50;;;12.64;51.18
85476;BME280;75880;41.476;22.164;2024-02-21T10:42:01;101105.91;;;12.73;50.72
85476;BME280;75880;41.476;22.164;2024-02-21T10:44:37;101094.88;;;12.81;50.75
85476;BME280;75880;41.476;22.164;2024-02-21T10:47:08;101100.28;;;12.98;50.73
85476;BME280;75880;41.476;22.164;2024-02-21T10:49:41;101089.00;;;13.12;50.69
85476;BME280;75880;41.476;22.164;2024-02-21T10:55:20;101074.53;;;13.03;50.76
85476;BME280;75880;41.476;22.164;2024-02-21T10:57:50;101076.97;;;13.04;49.63
85476;BME280;75880;41.476;22.164;2024-02-21T11:00:17;101075.63;;;13.10;49.85
85476;BME280;75880;41.476;22.164;2024-02-21T11:02:45;101064.34;;;13.24;49.65
85476;BME280;75880;41.476;22.164;2024-02-21T11:05:12;101066.22;;;13.32;47.40
85476;BME280;75880;41.476;22.164;2024-02-21T11:07:39;101060.53;;;13.49;48.38
85476;BME280;75880;41.476;22.164;2024-02-21T11:10:20;101049.91;;;13.47;47.52
85476;BME280;75880;41.476;22.164;2024-02-21T11:12:48;101044.84;;;13.49;46.79
85476;BME280;75880;41.476;22.164;2024-02-21T11:15:15;101036.91;;;13.36;47.94
85476;BME280;75880;41.476;22.164;2024-02-21T11:17:40;101032.91;;;13.45;48.08
85476;BME280;75880;41.476;22.164;2024-02-21T11:20:13;101035.97;;;13.64;48.24
85476;BME280;75880;41.476;22.164;2024-02-21T11:22:42;101031.16;;;13.61;47.53
85476;BME280;75880;41.476;22.164;2024-02-21T11:25:08;101024.28;;;13.79;46.93
85476;BME280;75880;41.476;22.164;2024-02-21T11:27:37;101022.72;;;14.02;47.64
85476;BME280;75880;41.476;22.164;2024-02-21T11:30:05;101024.44;;;14.07;45.53
85476;BME280;75880;41.476;22.164;2024-02-21T11:32:31;101016.16;;;14.07;45.30
85476;BME280;75880;41.476;22.164;2024-02-21T11:35:03;101015.94;;;14.12;45.95
85476;BME280;75880;41.476;22.164;2024-02-21T11:37:31;101008.75;;;14.31;46.13
85476;BME280;75880;41.476;22.164;2024-02-21T11:40:03;100994.50;;;14.41;45.55
85476;BME280;75880;41.476;22.164;2024-02-21T11:42:30;100998.84;;;14.42;44.09
85476;BME280;75880;41.476;22.164;2024-02-21T11:44:57;100995.63;;;14.52;43.47
85476;BME280;75880;41.476;22.164;2024-02-21T11:47:23;100990.53;;;14.66;44.24
85476;BME280;75880;41.476;22.164;2024-02-21T11:49:49;100997.03;;;14.46;43.21
85476;BME280;75880;41.476;22.164;2024-02-21T11:52:25;100979.06;;;14.64;42.67
85476;BME280;75880;41.476;22.164;2024-02-21T11:54:53;100974.91;;;14.82;40.35
85476;BME280;75880;41.476;22.164;2024-02-21T11:57:20;100971.44;;;14.85;41.44
85476;BME280;75880;41.476;22.164;2024-02-21T11:59:46;100967.97;;;14.88;41.90
85476;BME280;75880;41.476;22.164;2024-02-21T12:02:12;100963.88;;;14.82;40.43
85476;BME280;75880;41.476;22.164;2024-02-21T12:04:39;100960.75;;;14.84;39.87
85476;BME280;75880;41.476;22.164;2024-02-21T12:07:05;100951.41;;;14.88;39.55
85476;BME280;75880;41.476;22.164;2024-02-21T12:09:33;100941.63;;;15.03;39.71
85476;BME280;75880;41.476;22.164;2024-02-21T12:12:02;100944.75;;;15.17;39.92
85476;BME280;75880;41.476;22.164;2024-02-21T12:14:33;100938.19;;;15.21;39.21
85476;BME280;75880;41.476;22.164;2024-02-21T12:17:00;100925.97;;;15.34;39.17
85476;BME280;75880;41.476;22.164;2024-02-21T12:19:29;100928.09;;;15.41;37.15
85476;BME280;75880;41.476;22.164;2024-02-21T12:21:55;100927.19;;;15.37;36.58
85476;BME280;75880;41.476;22.164;2024-02-21T12:24:25;100929.06;;;15.48;36.03
85476;BME280;75880;41.476;22.164;2024-02-21T12:26:54;100916.78;;;15.61;37.11
85476;BME280;75880;41.476;22.164;2024-02-21T12:29:22;100920.41;;;15.81;37.37
85476;BME280;75880;41.476;22.164;2024-02-21T12:31:51;100909.63;;;15.91;34.58
85476;BME280;75880;41.476;22.164;2024-02-21T12:34:16;100903.38;;;15.94;34.56
85476;BME280;75880;41.476;22.164;2024-02-21T12:36:44;100900.25;;;16.11;34.52
85476;BME280;75880;41.476;22.164;2024-02-21T12:39:11;100902.09;;;16.23;34.06
85476;BME280;75880;41.476;22.164;2024-02-21T12:41:38;100889.78;;;16.20;33.94
85476;BME280;75880;41.476;22.164;2024-02-21T12:44:05;100889.94;;;16.27;34.49
85476;BME280;75880;41.476;22.164;2024-02-21T12:46:35;100881.28;;;16.10;33.84